createdAt,value
2023-05-24T00:02:21.671Z,18.80
2023-05-24T00:04:49.787Z,18.80
2023-05-24T00:07:17.475Z,18.81
2023-05-24T00:09:45.051Z,18.83
2023-05-24T00:12:12.667Z,18.82
2023-05-24T00:14:40.251Z,18.86
2023-05-24T00:17:07.739Z,18.87
2023-05-24T00:19:38.585Z,18.91
2023-05-24T00:22:06.295Z,18.93
2023-05-24T00:24:33.873Z,18.97
2023-05-24T00:27:01.401Z,18.98
2023-05-24T00:29:30.790Z,18.98
2023-05-24T00:32:01.038Z,19.02
2023-05-24T00:34:28.721Z,19.04
2023-05-24T00:36:57.379Z,19.08
2023-05-24T00:39:24.974Z,19.06
2023-05-24T00:41:52.713Z,19.11
2023-05-24T00:44:20.321Z,19.16
2023-05-24T00:46:49.112Z,19.16
2023-05-24T00:49:16.786Z,19.17
2023-05-24T00:51:46.271Z,19.19
2023-05-24T00:54:15.416Z,19.21
2023-05-24T00:56:43.795Z,19.30
2023-05-24T00:59:11.444Z,19.30
2023-05-24T01:01:39.413Z,19.33
2023-05-24T01:04:07.773Z,19.35
2023-05-24T01:07:08.083Z,19.66
2023-05-24T01:09:58.118Z,19.66
2023-05-24T01:12:51.465Z,19.61
2023-05-24T01:15:28.727Z,19.68
2023-05-24T01:18:06.406Z,19.73
2023-05-24T01:20:35.410Z,19.67
2023-05-24T01:23:08.322Z,19.68
2023-05-24T01:25:42.303Z,19.91
2023-05-24T01:28:12.800Z,19.92
2023-05-24T01:30:42.280Z,19.94
2023-05-24T01:33:10.375Z,20.00
2023-05-24T01:35:41.609Z,20.03
2023-05-24T01:38:11.362Z,20.09
2023-05-24T01:40:40.681Z,20.16
2023-05-24T01:43:08.261Z,20.23
2023-05-24T01:45:48.973Z,20.39
2023-05-24T01:48:29.574Z,20.51
2023-05-24T01:51:01.125Z,20.53
2023-05-24T01:53:35.114Z,20.65
2023-05-24T01:56:06.002Z,20.70
2023-05-24T01:58:34.977Z,20.72
2023-05-24T02:01:03.532Z,20.84
2023-05-24T02:03:32.095Z,20.93
2023-05-24T02:05:59.661Z,20.99
2023-05-24T02:08:27.178Z,21.08
2023-05-24T02:10:54.806Z,21.19
2023-05-24T02:13:22.545Z,21.28
2023-05-24T02:15:50.258Z,21.36
2023-05-24T02:18:18.985Z,21.41
2023-05-24T02:20:47.311Z,21.52
2023-05-24T02:23:14.930Z,21.61
2023-05-24T02:25:42.441Z,21.69
2023-05-24T02:28:10.362Z,21.80
2023-05-24T02:30:38.789Z,21.90
2023-05-24T02:33:07.001Z,22.00
2023-05-24T02:35:34.732Z,22.07
2023-05-24T02:38:04.042Z,22.22
2023-05-24T02:40:31.648Z,22.25
2023-05-24T02:42:59.211Z,22.43
2023-05-24T02:45:26.730Z,22.58
2023-05-24T02:47:54.227Z,22.72
2023-05-24T02:50:21.749Z,22.86
2023-05-24T02:52:49.351Z,22.99
2023-05-24T02:55:16.868Z,23.17
2023-05-24T02:57:44.543Z,23.35
2023-05-24T03:00:12.873Z,23.58
2023-05-24T03:02:42.898Z,24.01
2023-05-24T03:05:10.635Z,24.83
2023-05-24T03:07:38.167Z,25.56
2023-05-24T03:10:07.224Z,26.21
2023-05-24T03:12:34.828Z,26.79
2023-05-24T03:15:02.497Z,27.45
2023-05-24T03:17:31.964Z,27.98
2023-05-24T03:20:00.409Z,28.55
2023-05-24T03:22:31.339Z,29.03
2023-05-24T03:24:58.949Z,29.55
2023-05-24T03:27:26.648Z,30.08
2023-05-24T03:29:55.087Z,30.51
2023-05-24T03:32:26.366Z,30.96
2023-05-24T03:34:53.960Z,31.43
2023-05-24T03:37:21.670Z,31.85
2023-05-24T03:39:49.280Z,32.23
2023-05-24T03:42:35.034Z,32.65
2023-05-24T03:45:02.585Z,33.03
2023-05-24T03:47:32.367Z,33.42
2023-05-24T03:50:00.131Z,33.77
2023-05-24T03:52:27.720Z,34.11
2023-05-24T03:54:55.412Z,34.43
2023-05-24T03:57:22.891Z,34.76
2023-05-24T03:59:50.418Z,35.08
2023-05-24T04:02:17.996Z,35.42
2023-05-24T04:04:46.159Z,35.68
2023-05-24T04:07:15.739Z,36.00
2023-05-24T04:09:43.754Z,36.25
2023-05-24T04:12:12.114Z,36.55
2023-05-24T04:14:42.364Z,36.86
2023-05-24T04:17:10.318Z,37.10
2023-05-24T04:19:38.019Z,37.43
2023-05-24T04:22:05.850Z,37.78
2023-05-24T04:24:33.435Z,38.10
2023-05-24T04:27:01.039Z,38.35
2023-05-24T04:29:28.908Z,38.64
2023-05-24T04:31:56.758Z,38.94
2023-05-24T04:34:25.878Z,39.16
2023-05-24T04:36:53.404Z,39.44
2023-05-24T04:39:21.152Z,39.75
2023-05-24T04:41:51.451Z,40.05
2023-05-24T04:44:19.637Z,40.45
2023-05-24T04:46:47.092Z,40.57
2023-05-24T04:49:14.640Z,40.93
2023-05-24T04:51:42.393Z,41.19
2023-05-24T04:54:10.120Z,41.49
2023-05-24T04:56:39.069Z,41.66
2023-05-24T04:59:07.802Z,41.84
2023-05-24T05:01:35.483Z,42.05
2023-05-24T05:04:06.790Z,42.31
2023-05-24T05:06:38.985Z,42.52
2023-05-24T05:09:10.806Z,42.54
2023-05-24T05:11:38.367Z,42.85
2023-05-24T05:14:06.703Z,43.15
2023-05-24T05:16:34.345Z,43.35
2023-05-24T05:19:04.967Z,43.61
2023-05-24T05:21:36.955Z,43.75
2023-05-24T05:24:04.482Z,43.76
2023-05-24T05:26:32.040Z,43.88
2023-05-24T05:28:59.577Z,44.14
2023-05-24T05:31:27.128Z,44.21
2023-05-24T05:33:54.620Z,44.41
2023-05-24T05:36:22.105Z,44.60
2023-05-24T05:38:49.637Z,44.81
2023-05-24T05:41:18.330Z,44.89
2023-05-24T05:43:46.143Z,44.94
2023-05-24T05:46:15.955Z,45.02
2023-05-24T05:48:45.668Z,45.14
2023-05-24T05:51:14.382Z,45.30
2023-05-24T05:53:41.966Z,45.52
2023-05-24T05:56:09.494Z,45.84
2023-05-24T05:58:39.158Z,45.88
2023-05-24T06:01:06.629Z,46.15
2023-05-24T06:03:34.512Z,46.25
2023-05-24T06:06:02.317Z,46.45
2023-05-24T06:08:35.365Z,46.54
2023-05-24T06:11:03.629Z,46.63
2023-05-24T06:13:33.205Z,46.82
2023-05-24T06:16:01.597Z,46.93
2023-05-24T06:18:30.833Z,47.06
2023-05-24T06:20:58.370Z,47.23
2023-05-24T06:23:26.070Z,47.32
2023-05-24T06:25:53.513Z,47.37
2023-05-24T06:28:21.111Z,47.47
2023-05-24T06:30:48.706Z,47.62
2023-05-24T06:33:16.541Z,47.66
2023-05-24T06:35:44.153Z,47.77
2023-05-24T06:38:11.744Z,47.81
2023-05-24T06:40:39.462Z,47.93
2023-05-24T06:43:07.161Z,48.12
2023-05-24T06:45:34.717Z,48.17
2023-05-24T06:48:02.605Z,48.27
2023-05-24T06:50:30.249Z,48.32
2023-05-24T06:52:57.790Z,48.41
2023-05-24T06:55:25.280Z,48.36
2023-05-24T06:57:52.791Z,48.46
2023-05-24T07:00:20.982Z,48.60
2023-05-24T07:02:48.545Z,48.70
2023-05-24T07:05:16.307Z,48.76
2023-05-24T07:07:44.330Z,48.94
2023-05-24T07:10:12.601Z,48.86
2023-05-24T07:12:40.237Z,48.76
2023-05-24T07:15:09.045Z,47.90
2023-05-24T07:17:36.841Z,46.88
2023-05-24T07:20:07.659Z,45.99
2023-05-24T07:22:35.228Z,45.25
2023-05-24T07:25:03.301Z,44.57
2023-05-24T07:27:31.015Z,43.90
2023-05-24T07:29:58.990Z,43.40
2023-05-24T07:32:27.218Z,43.44
2023-05-24T07:34:55.634Z,43.43
2023-05-24T07:37:24.909Z,43.38
2023-05-24T07:39:52.546Z,43.30
2023-05-24T07:42:21.024Z,43.25
2023-05-24T07:44:48.574Z,43.16
2023-05-24T07:47:16.222Z,43.05
2023-05-24T07:49:43.735Z,42.97
2023-05-24T07:52:11.273Z,42.86
2023-05-24T07:54:38.753Z,42.71
2023-05-24T07:57:09.311Z,42.66
2023-05-24T07:59:37.131Z,42.66
2023-05-24T08:02:05.965Z,42.57
2023-05-24T08:04:33.710Z,42.51
2023-05-24T08:07:03.110Z,42.43
2023-05-24T08:09:34.053Z,42.32
2023-05-24T08:12:02.693Z,42.21
2023-05-24T08:14:30.329Z,42.10
2023-05-24T08:16:58.030Z,41.86
2023-05-24T08:19:25.630Z,41.80
2023-05-24T08:21:53.526Z,41.70
2023-05-24T08:24:21.352Z,41.50
2023-05-24T08:26:50.155Z,41.51
2023-05-24T08:29:18.054Z,41.36
2023-05-24T08:31:45.568Z,41.40
2023-05-24T08:34:14.013Z,41.31
2023-05-24T08:36:44.089Z,41.12
2023-05-24T08:39:11.758Z,40.94
2023-05-24T08:41:39.544Z,40.65
2023-05-24T08:44:10.375Z,40.59
2023-05-24T08:46:39.579Z,40.61
2023-05-24T08:49:09.613Z,40.32
2023-05-24T08:51:38.877Z,39.91
2023-05-24T08:54:07.897Z,39.79
2023-05-24T08:56:35.757Z,39.70
2023-05-24T08:59:03.356Z,39.62
2023-05-24T09:01:32.817Z,39.49
2023-05-24T09:04:05.108Z,39.44
2023-05-24T09:06:33.751Z,39.25
2023-05-24T09:09:04.189Z,39.15
2023-05-24T09:11:33.067Z,39.20
2023-05-24T09:14:01.080Z,39.10
2023-05-24T09:16:28.785Z,39.05
2023-05-24T09:18:56.700Z,38.77
2023-05-24T09:21:25.458Z,38.73
2023-05-24T09:23:54.524Z,38.66
2023-05-24T09:26:22.466Z,38.45
2023-05-24T09:28:51.679Z,38.24
2023-05-24T09:31:19.285Z,37.92
2023-05-24T09:33:49.678Z,37.92
2023-05-24T09:36:17.815Z,37.77
2023-05-24T09:38:45.383Z,37.69
2023-05-24T09:41:13.209Z,37.61
2023-05-24T09:43:50.460Z,37.74
2023-05-24T09:46:22.101Z,37.45
2023-05-24T09:48:59.974Z,37.52
2023-05-24T09:51:27.558Z,37.13
2023-05-24T09:53:58.214Z,37.16
2023-05-24T09:56:25.846Z,36.94
2023-05-24T09:58:55.218Z,36.91
2023-05-24T10:01:25.758Z,36.93
2023-05-24T10:03:55.697Z,36.88
2023-05-24T10:06:24.310Z,36.78
2023-05-24T10:08:52.660Z,36.76
2023-05-24T10:11:20.604Z,36.73
2023-05-24T10:13:51.450Z,36.84
2023-05-24T10:16:19.166Z,36.70
2023-05-24T10:18:46.725Z,36.67
2023-05-24T10:21:14.497Z,36.59
2023-05-24T10:23:44.928Z,36.55
2023-05-24T10:26:14.737Z,36.34
2023-05-24T10:28:55.376Z,36.49
2023-05-24T10:31:28.577Z,36.24
2023-05-24T10:34:06.506Z,36.08
2023-05-24T10:36:35.426Z,35.95
2023-05-24T10:39:03.825Z,35.88
2023-05-24T10:41:40.143Z,36.03
2023-05-24T10:44:12.813Z,35.85
2023-05-24T10:47:12.507Z,36.06
2023-05-24T10:50:05.434Z,35.98
2023-05-24T10:52:37.269Z,35.64
2023-05-24T10:55:09.976Z,35.52
2023-05-24T10:57:39.045Z,35.33
2023-05-24T11:03:03.230Z,35.22
2023-05-24T11:05:51.005Z,35.24
2023-05-24T11:08:28.656Z,35.06
2023-05-24T11:13:44.327Z,34.74
2023-05-24T11:16:38.750Z,34.99
2023-05-24T11:19:20.453Z,34.88
2023-05-24T11:21:50.902Z,34.49
2023-05-24T11:24:19.084Z,34.37
2023-05-24T11:26:47.497Z,34.27
2023-05-24T11:29:21.296Z,34.19
2023-05-24T11:31:51.027Z,34.15
2023-05-24T11:34:22.132Z,34.05
2023-05-24T11:36:50.446Z,33.94
2023-05-24T11:39:18.572Z,33.83
2023-05-24T11:41:47.798Z,33.71
2023-05-24T11:44:20.023Z,33.72
2023-05-24T11:46:47.671Z,33.53
2023-05-24T11:49:18.699Z,33.60
2023-05-24T11:51:46.694Z,33.37
2023-05-24T11:54:14.533Z,33.26
2023-05-24T11:56:42.001Z,33.17
2023-05-24T11:59:17.229Z,33.32
2023-05-24T12:01:45.070Z,33.10
2023-05-24T12:04:13.223Z,33.04
2023-05-24T12:06:43.318Z,32.95
2023-05-24T12:09:13.646Z,32.90
2023-05-24T12:11:42.469Z,32.83
2023-05-24T12:14:14.703Z,32.88
2023-05-24T12:16:46.852Z,32.83
2023-05-24T12:21:57.109Z,32.61
2023-05-24T12:24:26.833Z,32.42
2023-05-24T12:27:03.956Z,32.43
2023-05-24T12:29:40.679Z,32.37
2023-05-24T12:32:13.889Z,32.09
2023-05-24T12:34:42.444Z,32.66
2023-05-24T12:37:15.240Z,32.07
2023-05-24T12:39:43.885Z,32.62
2023-05-24T12:42:15.572Z,32.04
2023-05-24T12:44:43.176Z,31.88
2023-05-24T12:47:10.921Z,31.81
2023-05-24T12:49:38.586Z,31.68
2023-05-24T12:52:06.724Z,31.66
2023-05-24T12:54:34.666Z,31.59
2023-05-24T12:57:05.500Z,31.54
2023-05-24T12:59:34.172Z,31.55
2023-05-24T13:02:02.522Z,31.44
2023-05-24T13:04:32.124Z,31.38
2023-05-24T13:07:00.558Z,31.39
2023-05-24T13:09:28.210Z,31.38
2023-05-24T13:11:56.103Z,31.37
2023-05-24T13:14:23.723Z,31.32
2023-05-24T13:16:51.578Z,31.35
2023-05-24T13:19:19.330Z,31.32
2023-05-24T13:21:46.866Z,31.26
2023-05-24T13:24:16.552Z,31.24
2023-05-24T13:26:45.718Z,31.17
2023-05-24T13:31:45.115Z,31.02
2023-05-24T13:34:13.122Z,30.96
2023-05-24T13:36:40.837Z,30.92
2023-05-24T13:41:42.598Z,30.85
2023-05-24T13:44:10.870Z,30.78
2023-05-24T13:46:39.250Z,30.72
2023-05-24T13:49:08.111Z,30.66
2023-05-24T13:51:36.068Z,30.58
2023-05-24T13:54:05.284Z,30.51
2023-05-24T13:56:34.460Z,30.46
2023-05-24T13:59:03.048Z,30.43
2023-05-24T14:01:31.445Z,30.33
2023-05-24T14:04:00.631Z,30.28
2023-05-24T14:06:28.344Z,30.18
2023-05-24T14:08:55.988Z,30.20
2023-05-24T14:11:25.094Z,30.16
2023-05-24T14:16:24.813Z,30.07
2023-05-24T14:18:52.521Z,30.00
2023-05-24T14:21:21.937Z,29.91
2023-05-24T14:23:50.417Z,29.83
2023-05-24T14:26:19.099Z,29.80
2023-05-24T14:28:47.198Z,29.77
2023-05-24T14:31:14.980Z,29.70
2023-05-24T14:33:42.509Z,29.66
2023-05-24T14:36:10.156Z,29.65
2023-05-24T14:38:37.724Z,29.55
2023-05-24T14:41:05.254Z,29.51
2023-05-24T14:43:32.837Z,29.45
2023-05-24T14:46:00.421Z,29.41
2023-05-24T14:48:28.049Z,29.36
2023-05-24T14:50:55.633Z,29.30
2023-05-24T14:53:23.132Z,29.24
2023-05-24T14:55:50.706Z,29.20
2023-05-24T14:58:18.932Z,29.15
2023-05-24T15:00:46.610Z,29.10
2023-05-24T15:03:15.186Z,28.99
2023-05-24T15:05:43.314Z,28.95
2023-05-24T15:08:11.799Z,28.92
2023-05-24T15:10:39.735Z,28.84
2023-05-24T15:13:07.322Z,28.78
2023-05-24T15:15:34.845Z,28.75
2023-05-24T15:18:02.575Z,28.70
2023-05-24T15:20:30.168Z,28.63
2023-05-24T15:22:57.816Z,28.58
2023-05-24T15:25:25.312Z,28.53
2023-05-24T15:27:53.142Z,28.49
2023-05-24T15:30:21.201Z,28.44
2023-05-24T15:32:48.742Z,28.37
2023-05-24T15:35:17.479Z,28.24
2023-05-24T15:37:46.071Z,28.28
2023-05-24T15:40:15.419Z,28.23
2023-05-24T15:42:43.053Z,28.19
2023-05-24T15:45:11.419Z,28.13
2023-05-24T15:47:40.554Z,28.00
2023-05-24T15:50:09.297Z,27.93
2023-05-24T15:52:37.341Z,27.87
2023-05-24T15:55:05.211Z,27.81
2023-05-24T15:57:32.784Z,27.71
2023-05-24T16:00:00.356Z,27.67
2023-05-24T16:02:28.278Z,27.60
2023-05-24T16:04:57.555Z,27.55
2023-05-24T16:07:25.207Z,27.47
2023-05-24T16:09:52.963Z,27.39
2023-05-24T16:12:21.056Z,27.33
2023-05-24T16:14:48.746Z,27.28
2023-05-24T16:17:16.486Z,27.23
2023-05-24T16:19:46.793Z,27.14
2023-05-24T16:22:14.409Z,27.10
2023-05-24T16:24:42.270Z,26.99
2023-05-24T16:27:10.065Z,26.94
2023-05-24T16:29:38.487Z,26.88
2023-05-24T16:32:07.792Z,26.81
2023-05-24T16:34:51.948Z,26.76
2023-05-24T16:37:23.017Z,26.71
2023-05-24T16:39:50.585Z,26.65
2023-05-24T16:42:18.168Z,26.56
2023-05-24T16:44:45.814Z,26.51
2023-05-24T16:47:13.482Z,26.44
2023-05-24T16:49:41.017Z,26.39
2023-05-24T16:52:08.834Z,26.31
2023-05-24T16:54:36.346Z,26.32
2023-05-24T16:57:04.045Z,26.22
2023-05-24T16:59:31.639Z,26.18
2023-05-24T17:01:59.348Z,26.13
2023-05-24T17:04:26.961Z,26.09
2023-05-24T17:06:54.451Z,26.05
2023-05-24T17:09:22.127Z,26.00
2023-05-24T17:11:51.015Z,25.95
2023-05-24T17:14:18.718Z,25.91
2023-05-24T17:16:46.277Z,25.89
2023-05-24T17:19:14.492Z,25.83
2023-05-24T17:21:42.338Z,25.76
2023-05-24T17:24:09.932Z,25.70
2023-05-24T17:26:39.343Z,25.66
2023-05-24T17:29:07.108Z,25.56
2023-05-24T17:31:34.652Z,25.57
2023-05-24T17:34:02.473Z,25.51
2023-05-24T17:36:33.774Z,25.45
2023-05-24T17:39:01.394Z,25.40
2023-05-24T17:41:28.955Z,25.37
2023-05-24T17:43:56.567Z,25.30
2023-05-24T17:46:24.206Z,25.24
2023-05-24T17:48:52.300Z,25.25
2023-05-24T17:51:19.969Z,25.19
2023-05-24T17:53:47.656Z,25.14
2023-05-24T17:56:15.308Z,25.11
2023-05-24T17:58:43.342Z,25.08
2023-05-24T18:01:12.374Z,25.08
2023-05-24T18:03:41.328Z,25.05
2023-05-24T18:06:09.695Z,25.02
2023-05-24T18:08:41.423Z,24.97
2023-05-24T18:11:09.825Z,24.92
2023-05-24T18:13:38.848Z,24.87
2023-05-24T18:16:13.615Z,25.06
2023-05-24T18:18:41.681Z,24.83
2023-05-24T18:21:10.121Z,24.78
2023-05-24T18:23:38.524Z,24.73
2023-05-24T18:26:10.772Z,24.82
2023-05-24T18:28:39.228Z,24.59
2023-05-24T18:31:16.570Z,24.51
2023-05-24T18:33:44.171Z,24.48
2023-05-24T18:36:12.994Z,24.41
2023-05-24T18:38:40.852Z,24.37
2023-05-24T18:41:12.562Z,24.34
2023-05-24T18:43:40.655Z,24.30
2023-05-24T18:46:09.403Z,24.24
2023-05-24T18:48:36.852Z,24.21
2023-05-24T18:51:04.701Z,24.16
2023-05-24T18:53:32.336Z,24.07
2023-05-24T18:56:00.032Z,24.03
2023-05-24T18:58:27.598Z,23.99
2023-05-24T19:00:55.384Z,23.93
2023-05-24T19:03:23.056Z,23.87
2023-05-24T19:05:50.705Z,23.83
2023-05-24T19:08:18.665Z,23.80
2023-05-24T19:10:46.421Z,23.74
2023-05-24T19:13:13.956Z,23.67
2023-05-24T19:15:42.005Z,23.64
2023-05-24T19:18:09.682Z,23.59
2023-05-24T19:20:37.547Z,23.58
2023-05-24T19:23:05.412Z,23.53
2023-05-24T19:25:40.605Z,23.47
2023-05-24T19:28:09.142Z,23.43
2023-05-24T19:30:37.913Z,23.39
2023-05-24T19:33:06.908Z,23.30
2023-05-24T19:35:34.938Z,23.23
2023-05-24T19:38:02.438Z,23.21
2023-05-24T19:40:30.060Z,23.17
2023-05-24T19:42:57.653Z,23.13
2023-05-24T19:45:25.312Z,23.12
2023-05-24T19:47:53.020Z,23.03
2023-05-24T19:50:20.648Z,23.01
2023-05-24T19:52:48.250Z,22.95
2023-05-24T19:55:15.857Z,22.89
2023-05-24T19:57:43.392Z,22.88
2023-05-24T20:00:12.741Z,22.85
2023-05-24T20:02:40.431Z,22.81
2023-05-24T20:05:09.217Z,22.76
2023-05-24T20:07:37.085Z,22.74
2023-05-24T20:10:05.802Z,22.70
2023-05-24T20:12:34.884Z,22.67
2023-05-24T20:15:02.549Z,22.65
2023-05-24T20:17:31.597Z,22.57
2023-05-24T20:19:59.245Z,22.55
2023-05-24T20:22:26.923Z,22.51
2023-05-24T20:24:54.363Z,22.50
2023-05-24T20:27:22.038Z,22.45
2023-05-24T20:29:49.532Z,22.40
2023-05-24T20:32:17.341Z,22.35
2023-05-24T20:34:44.984Z,22.33
2023-05-24T20:37:12.447Z,22.16
2023-05-24T20:39:39.953Z,22.26
2023-05-24T20:42:08.532Z,22.21
2023-05-24T20:44:36.303Z,22.16
2023-05-24T20:47:03.865Z,22.13
2023-05-24T20:49:31.478Z,22.09
2023-05-24T20:51:59.160Z,22.07
2023-05-24T20:54:27.100Z,22.05
2023-05-24T20:56:54.688Z,22.02
2023-05-24T20:59:22.350Z,22.00
2023-05-24T21:01:50.082Z,21.94
2023-05-24T21:04:17.708Z,21.90
2023-05-24T21:06:45.316Z,21.89
2023-05-24T21:09:13.013Z,21.84
2023-05-24T21:11:40.922Z,21.81
2023-05-24T21:14:08.540Z,21.80
2023-05-24T21:16:36.769Z,21.79
2023-05-24T21:19:04.400Z,21.74
2023-05-24T21:21:31.952Z,21.72
2023-05-24T21:23:59.491Z,21.69
2023-05-24T21:26:27.043Z,21.65
2023-05-24T21:28:54.636Z,21.61
2023-05-24T21:31:23.189Z,21.56
2023-05-24T21:33:50.813Z,21.52
2023-05-24T21:36:18.958Z,21.48
2023-05-24T21:38:46.699Z,21.44
2023-05-24T21:41:14.437Z,21.42
2023-05-24T21:43:43.060Z,21.38
2023-05-24T21:46:10.695Z,21.39
2023-05-24T21:48:38.301Z,21.35
2023-05-24T21:51:06.394Z,21.35
2023-05-24T21:53:35.377Z,21.32
2023-05-24T21:56:03.172Z,21.30
2023-05-24T21:58:31.004Z,21.28
2023-05-24T22:00:58.568Z,21.19
2023-05-24T22:03:26.464Z,21.22
2023-05-24T22:05:54.064Z,21.07
2023-05-24T22:08:21.704Z,21.16
2023-05-24T22:10:49.278Z,21.11
2023-05-24T22:13:16.838Z,21.10
2023-05-24T22:15:44.996Z,21.10
2023-05-24T22:18:17.706Z,21.08
2023-05-24T22:20:45.538Z,21.01
2023-05-24T22:23:14.867Z,21.04
2023-05-24T22:25:42.930Z,21.01
2023-05-24T22:28:10.935Z,20.97
2023-05-24T22:30:38.607Z,20.94
2023-05-24T22:33:06.568Z,20.89
2023-05-24T22:35:34.302Z,20.85
2023-05-24T22:38:02.029Z,20.83
2023-05-24T22:40:29.819Z,20.82
2023-05-24T22:42:57.443Z,20.80
2023-05-24T22:45:25.161Z,20.75
2023-05-24T22:47:54.430Z,20.74
2023-05-24T22:50:22.148Z,20.73
2023-05-24T22:52:49.886Z,20.71
2023-05-24T22:55:17.612Z,20.73
2023-05-24T22:57:45.342Z,20.67
2023-05-24T23:00:13.538Z,20.65
2023-05-24T23:02:41.267Z,20.61
2023-05-24T23:05:10.038Z,20.59
2023-05-24T23:07:38.471Z,20.58
2023-05-24T23:10:06.636Z,20.55
2023-05-24T23:12:34.813Z,20.55
2023-05-24T23:15:02.537Z,20.53
2023-05-24T23:17:31.614Z,20.48
2023-05-24T23:19:59.677Z,20.43
2023-05-24T23:22:27.429Z,20.40
2023-05-24T23:24:55.050Z,20.37
2023-05-24T23:27:22.860Z,20.35
2023-05-24T23:29:50.663Z,20.34
2023-05-24T23:32:18.348Z,20.34
2023-05-24T23:34:46.156Z,20.31
2023-05-24T23:37:14.021Z,20.29
2023-05-24T23:39:41.755Z,20.33
2023-05-24T23:42:09.455Z,20.30
2023-05-24T23:44:37.198Z,20.24
2023-05-24T23:47:05.178Z,20.16
2023-05-24T23:49:33.145Z,20.16
2023-05-24T23:52:00.908Z,20.14
2023-05-24T23:54:28.652Z,20.16
2023-05-24T23:56:56.493Z,20.15
2023-05-24T23:59:24.195Z,20.18
